sensor_id;sensor_type;location;lat;lon;timestamp;pressure;altitude;pressure_sealevel;temperature;humidity
13954;BME280;7049;49.444;8.522;2022-10-01T00:01:34;77690.44;;;-3.47;85.93
13954;BME280;7049;49.444;8.522;2022-10-01T00:06:37;77700.91;;;-3.47;86.12
13954;BME280;7049;49.444;8.522;2022-10-01T00:11:38;77694.63;;;-3.47;85.93
13954;BME280;7049;49.444;8.522;2022-10-01T00:16:41;77694.63;;;-3.47;86.25
13954;BME280;7049;49.444;8.522;2022-10-01T00:21:44;77700.91;;;-3.47;86.32
13954;BME280;7049;49.444;8.522;2022-10-01T00:26:45;77698.81;;;-3.47;86.71
13954;BME280;7049;49.444;8.522;2022-10-01T00:31:47;77709.25;;;-3.47;86.88
13954;BME280;7049;49.444;8.522;2022-10-01T00:36:50;77700.91;;;-3.47;86.95
13954;BME280;7049;49.444;8.522;2022-10-01T00:41:51;77696.72;;;-3.47;86.65
13954;BME280;7049;49.444;8.522;2022-10-01T00:46:54;77690.44;;;-3.47;86.51
13954;BME280;7049;49.444;8.522;2022-10-01T00:52:01;77692.53;;;-3.47;86.44
13954;BME280;7049;49.444;8.522;2022-10-01T00:57:05;77696.72;;;-3.47;86.88
13954;BME280;7049;49.444;8.522;2022-10-01T01:02:07;77692.53;;;-3.47;87.07
13954;BME280;7049;49.444;8.522;2022-10-01T01:07:11;77694.63;;;-3.47;87.08
13954;BME280;7049;49.444;8.522;2022-10-01T01:17:40;77684.16;;;-3.47;87.69
13954;BME280;7049;49.444;8.522;2022-10-01T01:22:50;77684.16;;;-3.47;87.89
13954;BME280;7049;49.444;8.522;2022-10-01T01:28:05;77671.59;;;-3.47;87.77
13954;BME280;7049;49.444;8.522;2022-10-01T01:33:11;77671.59;;;-3.47;88.29
13954;BME280;7049;49.444;8.522;2022-10-01T01:38:19;77663.22;;;-3.47;88.13
13954;BME280;7049;49.444;8.522;2022-10-01T01:43:27;77671.59;;;-3.47;88.69
13954;BME280;7049;49.444;8.522;2022-10-01T01:48:30;77665.31;;;-3.47;89.06
13954;BME280;7049;49.444;8.522;2022-10-01T01:53:35;77656.94;;;-3.47;89.01
13954;BME280;7049;49.444;8.522;2022-10-01T01:58:38;77659.03;;;-3.47;88.88
13954;BME280;7049;49.444;8.522;2022-10-01T02:03:40;77661.13;;;-3.47;89.03
13954;BME280;7049;49.444;8.522;2022-10-01T02:08:47;77659.03;;;-3.47;87.88
13954;BME280;7049;49.444;8.522;2022-10-01T02:14:00;77654.88;;;-3.47;87.85
13954;BME280;7049;49.444;8.522;2022-10-01T02:19:06;77648.59;;;-3.47;87.25
13954;BME280;7049;49.444;8.522;2022-10-01T02:24:17;77650.69;;;-3.47;87.79
13954;BME280;7049;49.444;8.522;2022-10-01T02:29:25;77654.88;;;-3.47;87.83
13954;BME280;7049;49.444;8.522;2022-10-01T02:34:29;77656.94;;;-3.47;87.43
13954;BME280;7049;49.444;8.522;2022-10-01T02:39:32;77650.69;;;-3.47;87.37
13954;BME280;7049;49.444;8.522;2022-10-01T02:44:38;77644.41;;;-3.47;87.09
13954;BME280;7049;49.444;8.522;2022-10-01T02:49:42;77646.50;;;-3.47;87.45
13954;BME280;7049;49.444;8.522;2022-10-01T02:54:46;77640.22;;;-3.47;87.25
13954;BME280;7049;49.444;8.522;2022-10-01T02:59:53;77633.94;;;-3.47;87.18
13954;BME280;7049;49.444;8.522;2022-10-01T03:04:57;77633.94;;;-3.47;87.13
13954;BME280;7049;49.444;8.522;2022-10-01T03:09:59;77631.84;;;-3.47;87.22
13954;BME280;7049;49.444;8.522;2022-10-01T03:15:02;77625.56;;;-3.47;87.37
13954;BME280;7049;49.444;8.522;2022-10-01T03:20:05;77619.28;;;-3.47;87.14
13954;BME280;7049;49.444;8.522;2022-10-01T03:25:07;77613.00;;;-3.47;87.82
13954;BME280;7049;49.444;8.522;2022-10-01T03:30:11;77617.19;;;-3.47;87.39
13954;BME280;7049;49.444;8.522;2022-10-01T03:35:13;77608.84;;;-3.47;87.06
13954;BME280;7049;49.444;8.522;2022-10-01T03:40:14;77600.47;;;-3.47;86.82
13954;BME280;7049;49.444;8.522;2022-10-01T03:45:17;77608.84;;;-3.47;87.38
13954;BME280;7049;49.444;8.522;2022-10-01T03:50:19;77600.47;;;-3.47;87.19
13954;BME280;7049;49.444;8.522;2022-10-01T03:55:21;77596.28;;;-3.47;87.12
13954;BME280;7049;49.444;8.522;2022-10-01T04:05:42;77585.81;;;-3.47;87.18
13954;BME280;7049;49.444;8.522;2022-10-01T04:10:44;77571.16;;;-3.47;87.10
13954;BME280;7049;49.444;8.522;2022-10-01T04:15:46;77571.16;;;-3.47;87.15
13954;BME280;7049;49.444;8.522;2022-10-01T04:20:49;77569.06;;;-3.47;87.40
13954;BME280;7049;49.444;8.522;2022-10-01T04:25:50;77571.16;;;-3.47;88.04
13954;BME280;7049;49.444;8.522;2022-10-01T04:30:52;77577.44;;;-3.47;88.76
13954;BME280;7049;49.444;8.522;2022-10-01T04:36:15;77573.25;;;-3.47;89.16
13954;BME280;7049;49.444;8.522;2022-10-01T04:41:17;77566.97;;;-3.47;90.07
13954;BME280;7049;49.444;8.522;2022-10-01T04:46:19;77562.81;;;-3.47;90.90
13954;BME280;7049;49.444;8.522;2022-10-01T04:51:22;77554.44;;;-3.47;90.76
13954;BME280;7049;49.444;8.522;2022-10-01T04:56:23;77548.16;;;-3.47;90.92
13954;BME280;7049;49.444;8.522;2022-10-01T05:01:25;77541.88;;;-3.47;91.61
13954;BME280;7049;49.444;8.522;2022-10-01T05:06:28;77541.88;;;-3.47;91.63
13954;BME280;7049;49.444;8.522;2022-10-01T05:11:29;77550.25;;;-3.47;92.32
13954;BME280;7049;49.444;8.522;2022-10-01T05:16:30;77543.97;;;-3.47;93.16
13954;BME280;7049;49.444;8.522;2022-10-01T05:21:35;77537.69;;;-3.47;93.58
13954;BME280;7049;49.444;8.522;2022-10-01T05:26:36;77537.69;;;-3.47;93.92
13954;BME280;7049;49.444;8.522;2022-10-01T05:31:38;77533.50;;;-3.47;93.84
13954;BME280;7049;49.444;8.522;2022-10-01T05:36:44;77529.31;;;-3.47;94.25
13954;BME280;7049;49.444;8.522;2022-10-01T05:41:46;77518.84;;;-3.47;94.15
13954;BME280;7049;49.444;8.522;2022-10-01T05:46:47;77525.13;;;-3.47;94.71
13954;BME280;7049;49.444;8.522;2022-10-01T05:51:50;77516.78;;;-3.47;94.46
13954;BME280;7049;49.444;8.522;2022-10-01T05:56:52;77520.94;;;-3.47;93.71
13954;BME280;7049;49.444;8.522;2022-10-01T06:01:53;77527.22;;;-3.47;94.39
13954;BME280;7049;49.444;8.522;2022-10-01T06:06:56;77525.13;;;-3.47;94.17
13954;BME280;7049;49.444;8.522;2022-10-01T06:11:58;77514.69;;;-3.47;93.98
13954;BME280;7049;49.444;8.522;2022-10-01T06:17:00;77504.22;;;-3.47;93.88
13954;BME280;7049;49.444;8.522;2022-10-01T06:22:03;77493.75;;;-3.47;93.73
13954;BME280;7049;49.444;8.522;2022-10-01T06:27:04;77489.56;;;-3.47;93.54
13954;BME280;7049;49.444;8.522;2022-10-01T06:32:05;77479.09;;;-3.47;93.38
13954;BME280;7049;49.444;8.522;2022-10-01T06:37:11;77489.56;;;-3.47;93.48
13954;BME280;7049;49.444;8.522;2022-10-01T06:42:12;77491.66;;;-3.47;93.77
13954;BME280;7049;49.444;8.522;2022-10-01T06:47:14;77485.38;;;-3.47;94.07
13954;BME280;7049;49.444;8.522;2022-10-01T06:52:17;77481.19;;;-3.47;93.60
13954;BME280;7049;49.444;8.522;2022-10-01T06:57:36;77491.66;;;-3.47;94.17
13954;BME280;7049;49.444;8.522;2022-10-01T07:02:37;77487.47;;;-3.47;93.76
13954;BME280;7049;49.444;8.522;2022-10-01T07:07:40;77491.66;;;-3.47;94.83
13954;BME280;7049;49.444;8.522;2022-10-01T07:12:42;77495.84;;;-3.47;95.28
13954;BME280;7049;49.444;8.522;2022-10-01T07:17:47;77491.66;;;-3.47;95.31
13954;BME280;7049;49.444;8.522;2022-10-01T07:22:55;77481.19;;;-3.47;95.32
13954;BME280;7049;49.444;8.522;2022-10-01T07:27:58;77483.28;;;-3.47;95.10
13954;BME280;7049;49.444;8.522;2022-10-01T07:33:00;77483.28;;;-3.47;95.53
13954;BME280;7049;49.444;8.522;2022-10-01T07:38:03;77474.94;;;-3.47;95.72
13954;BME280;7049;49.444;8.522;2022-10-01T07:43:07;77468.66;;;-3.47;96.33
13954;BME280;7049;49.444;8.522;2022-10-01T07:48:08;77462.38;;;-3.47;96.26
13954;BME280;7049;49.444;8.522;2022-10-01T07:53:11;77477.03;;;-3.47;96.78
13954;BME280;7049;49.444;8.522;2022-10-01T07:58:13;77477.03;;;-3.47;96.75
13954;BME280;7049;49.444;8.522;2022-10-01T08:03:14;77468.66;;;-3.47;95.72
13954;BME280;7049;49.444;8.522;2022-10-01T08:08:17;77462.38;;;-3.47;95.10
13954;BME280;7049;49.444;8.522;2022-10-01T08:13:19;77477.03;;;-3.47;96.04
13954;BME280;7049;49.444;8.522;2022-10-01T08:18:23;77493.75;;;-3.47;96.45
13954;BME280;7049;49.444;8.522;2022-10-01T08:23:28;77468.66;;;-3.47;95.85
13954;BME280;7049;49.444;8.522;2022-10-01T08:28:30;77472.84;;;-3.47;96.48
13954;BME280;7049;49.444;8.522;2022-10-01T08:33:32;77466.56;;;-3.47;96.31
13954;BME280;7049;49.444;8.522;2022-10-01T08:38:35;77456.09;;;-3.47;96.47
13954;BME280;7049;49.444;8.522;2022-10-01T08:43:40;77414.25;;;-3.47;96.91
13954;BME280;7049;49.444;8.522;2022-10-01T08:48:50;77376.59;;;-3.47;96.75
13954;BME280;7049;49.444;8.522;2022-10-01T08:53:58;77449.81;;;-3.47;96.88
13954;BME280;7049;49.444;8.522;2022-10-01T08:59:12;77462.38;;;-3.47;96.80
13954;BME280;7049;49.444;8.522;2022-10-01T09:04:17;77449.81;;;-3.47;96.43
13954;BME280;7049;49.444;8.522;2022-10-01T09:09:33;77441.44;;;-3.47;96.67
13954;BME280;7049;49.444;8.522;2022-10-01T09:15:00;77424.72;;;-3.47;97.17
13954;BME280;7049;49.444;8.522;2022-10-01T09:20:11;77416.34;;;-3.47;96.50
13954;BME280;7049;49.444;8.522;2022-10-01T09:25:21;77437.25;;;-3.47;96.50
13954;BME280;7049;49.444;8.522;2022-10-01T09:30:23;77431.00;;;-3.47;95.81
13954;BME280;7049;49.444;8.522;2022-10-01T09:35:35;77441.44;;;-3.47;96.71
13954;BME280;7049;49.444;8.522;2022-10-01T09:40:44;77443.53;;;-3.47;96.83
13954;BME280;7049;49.444;8.522;2022-10-01T09:45:47;77433.06;;;-3.47;96.35
13954;BME280;7049;49.444;8.522;2022-10-01T09:50:52;77420.53;;;-3.47;96.50
13954;BME280;7049;49.444;8.522;2022-10-01T09:55:59;77431.00;;;-3.47;96.03
13954;BME280;7049;49.444;8.522;2022-10-01T10:01:04;77422.63;;;-3.47;95.87
13954;BME280;7049;49.444;8.522;2022-10-01T10:06:12;77407.97;;;-3.47;95.46
13954;BME280;7049;49.444;8.522;2022-10-01T10:11:21;77403.78;;;-3.47;95.60
13954;BME280;7049;49.444;8.522;2022-10-01T10:16:25;77412.16;;;-3.47;95.33
13954;BME280;7049;49.444;8.522;2022-10-01T10:21:29;77410.06;;;-3.47;95.59
13954;BME280;7049;49.444;8.522;2022-10-01T10:26:36;77416.34;;;-3.47;95.50
13954;BME280;7049;49.444;8.522;2022-10-01T10:31:40;77399.59;;;-3.47;95.11
13954;BME280;7049;49.444;8.522;2022-10-01T10:36:44;77376.59;;;-3.47;95.50
13954;BME280;7049;49.444;8.522;2022-10-01T10:41:48;77372.41;;;-3.47;95.73
13954;BME280;7049;49.444;8.522;2022-10-01T10:46:52;77368.22;;;-3.47;96.13
13954;BME280;7049;49.444;8.522;2022-10-01T10:51:55;77361.94;;;-3.47;96.29
13954;BME280;7049;49.444;8.522;2022-10-01T10:57:00;77349.38;;;-3.47;95.44
13954;BME280;7049;49.444;8.522;2022-10-01T11:02:04;77336.84;;;-3.47;95.08
13954;BME280;7049;49.444;8.522;2022-10-01T11:07:18;77328.47;;;-3.47;95.92
13954;BME280;7049;49.444;8.522;2022-10-01T11:12:32;77328.47;;;-3.47;95.22
13954;BME280;7049;49.444;8.522;2022-10-01T11:17:55;77290.81;;;-3.47;94.69
13954;BME280;7049;49.444;8.522;2022-10-01T11:23:29;77286.63;;;-3.47;94.24
13954;BME280;7049;49.444;8.522;2022-10-01T11:28:45;77276.16;;;-3.47;94.13
13954;BME280;7049;49.444;8.522;2022-10-01T11:33:59;77269.88;;;-3.47;92.94
13954;BME280;7049;49.444;8.522;2022-10-01T11:39:11;77282.44;;;-3.47;94.06
13954;BME280;7049;49.444;8.522;2022-10-01T11:44:21;77282.44;;;-3.47;93.63
13954;BME280;7049;49.444;8.522;2022-10-01T11:49:40;77278.25;;;-3.47;93.61
13954;BME280;7049;49.444;8.522;2022-10-01T11:54:53;77267.78;;;-3.47;93.30
13954;BME280;7049;49.444;8.522;2022-10-01T12:00:03;77259.44;;;-3.47;93.41
13954;BME280;7049;49.444;8.522;2022-10-01T12:05:09;77234.31;;;-3.47;93.09
13954;BME280;7049;49.444;8.522;2022-10-01T12:10:19;77223.88;;;-3.47;91.92
13954;BME280;7049;49.444;8.522;2022-10-01T12:15:29;77202.94;;;-3.47;92.27
13954;BME280;7049;49.444;8.522;2022-10-01T12:20:35;77202.94;;;-3.47;92.25
13954;BME280;7049;49.444;8.522;2022-10-01T12:25:42;77205.03;;;-3.47;91.39
13954;BME280;7049;49.444;8.522;2022-10-01T12:30:53;77190.38;;;-3.47;91.70
13954;BME280;7049;49.444;8.522;2022-10-01T12:36:04;77202.94;;;-3.47;90.99
13954;BME280;7049;49.444;8.522;2022-10-01T12:41:20;77179.94;;;-3.47;90.69
13954;BME280;7049;49.444;8.522;2022-10-01T12:46:35;77167.38;;;-3.47;91.20
13954;BME280;7049;49.444;8.522;2022-10-01T12:51:40;77165.28;;;-3.47;90.70
13954;BME280;7049;49.444;8.522;2022-10-01T12:56:49;77156.91;;;-3.47;90.00
13954;BME280;7049;49.444;8.522;2022-10-01T13:02:03;77167.38;;;-3.47;91.01
13954;BME280;7049;49.444;8.522;2022-10-01T13:12:49;77177.84;;;-3.47;91.01
13954;BME280;7049;49.444;8.522;2022-10-01T13:18:04;77179.94;;;-3.47;91.47
13954;BME280;7049;49.444;8.522;2022-10-01T13:23:12;77184.09;;;-3.47;91.72
13954;BME280;7049;49.444;8.522;2022-10-01T13:28:20;77182.03;;;-3.47;92.49
13954;BME280;7049;49.444;8.522;2022-10-01T13:33:27;77190.38;;;-3.47;93.57
13954;BME280;7049;49.444;8.522;2022-10-01T13:38:37;77173.66;;;-3.47;94.47
13954;BME280;7049;49.444;8.522;2022-10-01T13:43:46;77186.19;;;-3.47;95.85
13954;BME280;7049;49.444;8.522;2022-10-01T13:48:59;77173.66;;;-3.47;96.21
13954;BME280;7049;49.444;8.522;2022-10-01T13:54:06;77163.19;;;-3.47;95.57
13954;BME280;7049;49.444;8.522;2022-10-01T13:59:25;77163.19;;;-3.47;95.88
13954;BME280;7049;49.444;8.522;2022-10-01T14:04:34;77156.91;;;-3.47;94.71
13954;BME280;7049;49.444;8.522;2022-10-01T14:09:41;77165.28;;;-3.47;94.98
13954;BME280;7049;49.444;8.522;2022-10-01T14:14:48;77175.75;;;-3.47;94.98
13954;BME280;7049;49.444;8.522;2022-10-01T14:20:17;77167.38;;;-3.47;94.57
13954;BME280;7049;49.444;8.522;2022-10-01T14:25:34;77148.53;;;-3.47;94.33
13954;BME280;7049;49.444;8.522;2022-10-01T14:30:45;77138.09;;;-3.47;93.21
13954;BME280;7049;49.444;8.522;2022-10-01T14:35:55;77123.44;;;-3.47;91.64
13954;BME280;7049;49.444;8.522;2022-10-01T14:40:58;77123.44;;;-3.47;91.56
13954;BME280;7049;49.444;8.522;2022-10-01T14:46:02;77123.44;;;-3.47;90.70
13954;BME280;7049;49.444;8.522;2022-10-01T14:51:21;77131.81;;;-3.47;90.86
13954;BME280;7049;49.444;8.522;2022-10-01T14:56:23;77129.72;;;-3.47;91.14
13954;BME280;7049;49.444;8.522;2022-10-01T15:01:25;77123.44;;;-3.47;90.81
13954;BME280;7049;49.444;8.522;2022-10-01T15:06:28;77129.72;;;-3.47;90.49
13954;BME280;7049;49.444;8.522;2022-10-01T15:11:33;77127.63;;;-3.47;89.55
13954;BME280;7049;49.444;8.522;2022-10-01T15:16:35;77127.63;;;-3.47;89.68
13954;BME280;7049;49.444;8.522;2022-10-01T15:21:40;77133.91;;;-3.47;89.52
13954;BME280;7049;49.444;8.522;2022-10-01T15:26:45;77117.16;;;-3.47;88.41
13954;BME280;7049;49.444;8.522;2022-10-01T15:31:49;77123.44;;;-3.47;88.67
13954;BME280;7049;49.444;8.522;2022-10-01T15:36:53;77131.81;;;-3.47;90.08
13954;BME280;7049;49.444;8.522;2022-10-01T15:41:56;77136.00;;;-3.47;90.86
13954;BME280;7049;49.444;8.522;2022-10-01T15:47:25;77154.81;;;-3.47;91.21
13954;BME280;7049;49.444;8.522;2022-10-01T15:52:29;77179.94;;;-3.47;92.49
13954;BME280;7049;49.444;8.522;2022-10-01T15:57:54;77190.38;;;-3.47;93.97
13954;BME280;7049;49.444;8.522;2022-10-01T16:02:57;77202.94;;;-3.47;94.66
13954;BME280;7049;49.444;8.522;2022-10-01T16:08:00;77230.13;;;-3.47;95.57
13954;BME280;7049;49.444;8.522;2022-10-01T16:13:26;77238.50;;;-3.47;96.07
13954;BME280;7049;49.444;8.522;2022-10-01T16:18:29;77240.59;;;-3.47;97.20
13954;BME280;7049;49.444;8.522;2022-10-01T16:23:39;77253.16;;;-3.47;97.29
13954;BME280;7049;49.444;8.522;2022-10-01T16:28:41;77267.78;;;-3.47;97.77
13954;BME280;7049;49.444;8.522;2022-10-01T16:33:43;77290.81;;;-3.47;98.24
13954;BME280;7049;49.444;8.522;2022-10-01T16:38:47;77284.53;;;-3.47;98.34
13954;BME280;7049;49.444;8.522;2022-10-01T16:43:49;77301.28;;;-3.47;98.38
13954;BME280;7049;49.444;8.522;2022-10-01T16:48:50;77297.09;;;-3.47;98.18
13954;BME280;7049;49.444;8.522;2022-10-01T16:53:53;77303.38;;;-3.47;98.48
13954;BME280;7049;49.444;8.522;2022-10-01T16:58:56;77307.53;;;-3.47;98.04
13954;BME280;7049;49.444;8.522;2022-10-01T17:03:57;77320.09;;;-3.47;97.86
13954;BME280;7049;49.444;8.522;2022-10-01T17:09:00;77322.19;;;-3.47;97.50
13954;BME280;7049;49.444;8.522;2022-10-01T17:14:02;77332.66;;;-3.47;97.56
13954;BME280;7049;49.444;8.522;2022-10-01T17:19:03;77341.03;;;-3.47;97.63
13954;BME280;7049;49.444;8.522;2022-10-01T17:24:07;77349.38;;;-3.47;98.04
13954;BME280;7049;49.444;8.522;2022-10-01T17:29:11;77357.75;;;-3.47;98.79
13954;BME280;7049;49.444;8.522;2022-10-01T17:34:12;77374.50;;;-3.47;99.39
13954;BME280;7049;49.444;8.522;2022-10-01T17:39:15;77382.88;;;-3.47;99.14
13954;BME280;7049;49.444;8.522;2022-10-01T17:44:16;77387.06;;;-3.47;99.34
13954;BME280;7049;49.444;8.522;2022-10-01T17:49:18;77403.78;;;-3.47;99.70
13954;BME280;7049;49.444;8.522;2022-10-01T17:54:21;77401.69;;;-3.47;99.52
13954;BME280;7049;49.444;8.522;2022-10-01T17:59:22;77401.69;;;-3.47;98.91
13954;BME280;7049;49.444;8.522;2022-10-01T18:04:24;77416.34;;;-3.47;99.23
13954;BME280;7049;49.444;8.522;2022-10-01T18:09:27;77426.81;;;-3.47;99.42
13954;BME280;7049;49.444;8.522;2022-10-01T18:14:29;77428.91;;;-3.47;99.49
13954;BME280;7049;49.444;8.522;2022-10-01T18:19:30;77433.06;;;-3.47;99.42
13954;BME280;7049;49.444;8.522;2022-10-01T18:24:33;77433.06;;;-3.47;99.16
13954;BME280;7049;49.444;8.522;2022-10-01T18:29:34;77447.72;;;-3.47;99.32
13954;BME280;7049;49.444;8.522;2022-10-01T18:34:42;77462.38;;;-3.47;99.53
13954;BME280;7049;49.444;8.522;2022-10-01T18:39:52;77468.66;;;-3.47;99.47
13954;BME280;7049;49.444;8.522;2022-10-01T18:45:00;77460.28;;;-3.47;99.54
13954;BME280;7049;49.444;8.522;2022-10-01T18:50:11;77468.66;;;-3.47;99.83
13954;BME280;7049;49.444;8.522;2022-10-01T18:55:28;77483.28;;;-3.47;100.00
13954;BME280;7049;49.444;8.522;2022-10-01T19:00:37;77481.19;;;-3.47;99.73
13954;BME280;7049;49.444;8.522;2022-10-01T19:11:14;77506.31;;;-3.47;100.00
13954;BME280;7049;49.444;8.522;2022-10-01T19:16:24;77516.78;;;-3.47;100.00
13954;BME280;7049;49.444;8.522;2022-10-01T19:21:34;77531.41;;;-3.47;100.00
13954;BME280;7049;49.444;8.522;2022-10-01T19:26:45;77535.59;;;-3.47;100.00
13954;BME280;7049;49.444;8.522;2022-10-01T19:31:51;77529.31;;;-3.47;100.00
13954;BME280;7049;49.444;8.522;2022-10-01T19:37:01;77546.06;;;-3.47;100.00
13954;BME280;7049;49.444;8.522;2022-10-01T19:42:11;77552.34;;;-3.47;100.00
13954;BME280;7049;49.444;8.522;2022-10-01T19:47:30;77558.63;;;-3.47;100.00
13954;BME280;7049;49.444;8.522;2022-10-01T19:52:39;77573.25;;;-3.47;100.00
13954;BME280;7049;49.444;8.522;2022-10-01T19:57:43;77579.53;;;-3.47;100.00
13954;BME280;7049;49.444;8.522;2022-10-01T20:02:50;77583.72;;;-3.47;100.00
13954;BME280;7049;49.444;8.522;2022-10-01T20:07:58;77598.38;;;-3.47;100.00
13954;BME280;7049;49.444;8.522;2022-10-01T20:13:22;77592.09;;;-3.47;100.00
13954;BME280;7049;49.444;8.522;2022-10-01T20:18:32;77600.47;;;-3.47;100.00
13954;BME280;7049;49.444;8.522;2022-10-01T20:23:41;77608.84;;;-3.47;100.00
13954;BME280;7049;49.444;8.522;2022-10-01T20:28:59;77617.19;;;-3.47;100.00
13954;BME280;7049;49.444;8.522;2022-10-01T20:34:08;77623.47;;;-3.47;100.00
13954;BME280;7049;49.444;8.522;2022-10-01T20:39:17;77629.75;;;-3.47;100.00
13954;BME280;7049;49.444;8.522;2022-10-01T20:44:25;77631.84;;;-3.47;100.00
13954;BME280;7049;49.444;8.522;2022-10-01T20:49:30;77644.41;;;-3.47;100.00
13954;BME280;7049;49.444;8.522;2022-10-01T20:54:35;77646.50;;;-3.47;100.00
13954;BME280;7049;49.444;8.522;2022-10-01T20:59:42;77638.13;;;-3.47;100.00
13954;BME280;7049;49.444;8.522;2022-10-01T21:04:49;77629.75;;;-3.47;100.00
13954;BME280;7049;49.444;8.522;2022-10-01T21:09:56;77631.84;;;-3.47;100.00
13954;BME280;7049;49.444;8.522;2022-10-01T21:15:02;77627.66;;;-3.47;100.00
13954;BME280;7049;49.444;8.522;2022-10-01T21:20:15;77627.66;;;-3.47;100.00
13954;BME280;7049;49.444;8.522;2022-10-01T21:25:26;77625.56;;;-3.47;99.33
13954;BME280;7049;49.444;8.522;2022-10-01T21:30:41;77654.88;;;-3.47;99.67
13954;BME280;7049;49.444;8.522;2022-10-01T21:35:50;77659.03;;;-3.47;99.68
13954;BME280;7049;49.444;8.522;2022-10-01T21:41:02;77667.41;;;-3.47;100.00
13954;BME280;7049;49.444;8.522;2022-10-01T21:46:17;77675.78;;;-3.47;100.00
13954;BME280;7049;49.444;8.522;2022-10-01T21:51:24;77671.59;;;-3.47;100.00
13954;BME280;7049;49.444;8.522;2022-10-01T21:56:59;77684.16;;;-3.47;100.00
13954;BME280;7049;49.444;8.522;2022-10-01T22:02:15;77692.53;;;-3.47;100.00
13954;BME280;7049;49.444;8.522;2022-10-01T22:07:24;77692.53;;;-3.47;100.00
13954;BME280;7049;49.444;8.522;2022-10-01T22:12:31;77700.91;;;-3.47;100.00
13954;BME280;7049;49.444;8.522;2022-10-01T22:17:35;77696.72;;;-3.47;100.00
13954;BME280;7049;49.444;8.522;2022-10-01T22:22:38;77692.53;;;-3.47;99.83
13954;BME280;7049;49.444;8.522;2022-10-01T22:27:45;77703.00;;;-3.47;99.94
13954;BME280;7049;49.444;8.522;2022-10-01T22:32:53;77705.09;;;-3.47;100.00
13954;BME280;7049;49.444;8.522;2022-10-01T22:38:01;77698.81;;;-3.47;99.99
13954;BME280;7049;49.444;8.522;2022-10-01T22:43:07;77698.81;;;-3.47;99.74
13954;BME280;7049;49.444;8.522;2022-10-01T22:48:25;77703.00;;;-3.47;99.44
13954;BME280;7049;49.444;8.522;2022-10-01T22:53:41;77698.81;;;-3.47;99.19
13954;BME280;7049;49.444;8.522;2022-10-01T22:58:54;77692.53;;;-3.47;99.18
13954;BME280;7049;49.444;8.522;2022-10-01T23:04:09;77713.44;;;-3.47;99.41
13954;BME280;7049;49.444;8.522;2022-10-01T23:09:20;77726.00;;;-3.47;99.86
13954;BME280;7049;49.444;8.522;2022-10-01T23:14:40;77711.34;;;-3.47;99.92
13954;BME280;7049;49.444;8.522;2022-10-01T23:19:56;77713.44;;;-3.47;99.75
13954;BME280;7049;49.444;8.522;2022-10-01T23:25:14;77738.56;;;-3.47;99.97
13954;BME280;7049;49.444;8.522;2022-10-01T23:30:17;77761.56;;;-3.47;100.00
13954;BME280;7049;49.444;8.522;2022-10-01T23:35:21;77769.94;;;-3.47;100.00
13954;BME280;7049;49.444;8.522;2022-10-01T23:40:27;77765.75;;;-3.47;100.00
13954;BME280;7049;49.444;8.522;2022-10-01T23:45:33;77769.94;;;-3.47;100.00
13954;BME280;7049;49.444;8.522;2022-10-01T23:50:39;77772.03;;;-3.47;100.00
13954;BME280;7049;49.444;8.522;2022-10-01T23:55:50;77784.59;;;-3.47;100.00
